Time;durP1;ratioP1;P1;durP2;ratioP2;P2;SDS_P1;SDS_P2;PMS_P1;PMS_P2;Temp;Humidity;BMP_temperature;BMP_pressure;BME280_temperature;BME280_humidity;BME280_pressure;Samples;Min_cycle;Max_cycle;Signal;HPM_P1;HPM_P2
2023/02/01 00:02:13;;;;;;;;;8.00;7.00;;;;;6.98;43.48;101208.69;146622;563;46012;-85
2023/02/01 00:05:08;;;;;;;;;10.50;8.75;;;;;6.98;43.11;101219.91;146623;582;46010;-84
2023/02/01 00:08:30;;;;;;;;;;;;;;;;;;;;;
2023/02/01 00:11:24;;;;;;;;;9.00;6.00;;;;;7.03;43.83;101225.41;146622;573;46020;-86
2023/02/01 00:14:18;;;;;;;;;8.00;5.50;;;;;7.04;43.61;101214.28;146621;746;46014;-88
2023/02/01 00:17:19;;;;;;;;;6.00;5.00;;;;;7.04;43.86;101220.37;146622;650;47029;-87
2023/02/01 00:20:15;;;;;;;;;7.50;6.00;;;;;7.04;44.08;101220.37;146620;581;46016;-87
2023/02/01 00:23:25;;;;;;;;;4.25;3.75;;;;;6.22;43.48;101087.19;146623;607;46020;-83
2023/02/01 00:26:51;;;;;;;;;7.00;7.00;;;;;6.32;44.47;101111.06;146621;569;46016;-84
2023/02/01 00:29:50;;;;;;;;;7.50;7.00;;;;;7.03;44.26;101240.87;146619;569;46023;-83
2023/02/01 00:32:48;;;;;;;;;5.75;5.75;;;;;7.01;44.09;101245.00;146623;577;46016;-81
2023/02/01 00:35:45;;;;;;;;;6.50;4.75;;;;;6.98;44.32;101253.44;146629;693;46021;-84
2023/02/01 00:38:44;;;;;;;;;4.25;4.00;;;;;6.97;44.58;101261.94;146627;611;46012;-83
2023/02/01 00:41:57;;;;;;;;;4.00;4.00;;;;;6.99;45.24;101254.34;146629;565;46020;-79
2023/02/01 00:44:54;;;;;;;;;5.50;4.50;;;;;7.02;45.49;101259.72;146627;610;46016;-78
2023/02/01 00:48:01;;;;;;;;;5.25;3.25;;;;;7.04;45.49;101246.16;146629;606;45020;-80
2023/02/01 00:51:07;;;;;;;;;5.00;5.00;;;;;7.07;45.49;101250.63;146624;579;46016;-81
2023/02/01 00:54:03;;;;;;;;;5.75;5.75;;;;;7.07;45.68;101251.53;146632;569;46010;-83
2023/02/01 00:57:01;;;;;;;;;5.75;5.00;;;;;7.06;45.73;101265.19;146623;591;47015;-77
2023/02/01 01:00:04;;;;;;;;;9.00;5.50;;;;;7.05;45.50;101263.41;146629;636;46012;-79
2023/02/01 01:03:00;;;;;;;;;7.25;6.50;;;;;7.03;45.67;101264.06;146627;566;46014;-80
2023/02/01 01:06:04;;;;;;;;;5.75;5.00;;;;;7.02;45.63;101268.34;146630;569;45022;-80
2023/02/01 01:09:14;;;;;;;;;5.50;4.75;;;;;6.31;45.95;101142.75;146623;638;47016;-79
2023/02/01 01:12:28;;;;;;;;;9.50;6.00;;;;;7.00;45.44;101267.31;146626;606;46021;-80
2023/02/01 01:15:26;;;;;;;;;5.75;5.00;;;;;7.01;45.42;101268.22;146624;586;46016;-74
2023/02/01 01:18:24;;;;;;;;;7.00;6.00;;;;;7.00;44.96;101267.31;146629;621;46010;-77
2023/02/01 01:21:39;;;;;;;;;4.25;4.00;;;;;6.31;45.73;101158.22;146624;569;46016;-76
2023/02/01 01:24:34;;;;;;;;;4.00;4.00;;;;;7.02;44.99;101285.50;146631;599;46010;-77
2023/02/01 01:27:44;;;;;;;;;8.50;7.50;;;;;7.02;44.73;101286.38;146625;590;46914;-77
2023/02/01 01:30:56;;;;;;;;;20.25;15.75;;;;;7.00;45.68;101287.94;146624;571;46020;-78
2023/02/01 01:34:01;;;;;;;;;20.25;12.75;;;;;7.02;45.33;101294.13;146622;599;46012;-76
2023/02/01 01:36:56;;;;;;;;;16.50;13.25;;;;;7.01;44.67;101287.19;146619;607;46020;-76
2023/02/01 01:39:55;;;;;;;;;11.50;8.75;;;;;7.01;44.90;101286.25;146622;605;46016;-75
2023/02/01 01:42:55;;;;;;;;;12.25;9.75;;;;;7.02;45.05;101296.72;146624;606;46010;-77
2023/02/01 01:46:03;;;;;;;;;13.50;11.50;;;;;5.85;45.85;101085.19;146614;683;46016;-76
2023/02/01 01:49:35;;;;;;;;;;;;;;;;;;;;;
2023/02/01 01:52:38;;;;;;;;;10.00;10.00;;;;;7.01;44.85;101278.53;146621;582;46916;-76
2023/02/01 01:55:53;;;;;;;;;16.25;11.75;;;;;7.03;45.36;101282.13;146623;595;46020;-75
2023/02/01 01:58:46;;;;;;;;;16.25;14.00;;;;;7.03;45.29;101287.28;146621;631;46012;-77
2023/02/01 02:01:40;;;;;;;;;16.75;15.75;;;;;7.04;45.12;101294.22;146624;577;46010;-75
2023/02/01 02:04:47;;;;;;;;;8.00;5.00;;;;;7.04;45.31;101296.81;146620;565;46016;-75
2023/02/01 02:07:50;;;;;;;;;11.50;9.75;;;;;7.04;44.67;101289.06;146623;594;46020;-74
2023/02/01 02:11:01;;;;;;;;;4.25;4.00;;;;;7.03;45.07;101295.91;146621;571;46016;-86
2023/02/01 02:14:00;;;;;;;;;0.00;0.00;;;;;6.98;44.95;101286.97;146622;612;46021;-79
2023/02/01 02:17:41;;;;;;;;;2.75;2.75;;;;;6.40;45.69;101188.12;146625;613;46016;-80
2023/02/01 02:21:06;;;;;;;;;3.75;3.50;;;;;6.99;45.38;101296.47;146625;605;46020;-80
2023/02/01 02:24:58;;;;;;;;;2.75;2.00;;;;;6.07;45.91;101158.16;146622;610;46014;-77
2023/02/01 02:28:46;;;;;;;;;1.50;1.50;;;;;6.31;45.94;101184.88;146626;628;46020;-76
2023/02/01 02:32:25;;;;;;;;;4.00;2.00;;;;;6.93;45.68;101302.06;146626;582;46012;-74
2023/02/01 02:36:03;;;;;;;;;4.50;4.50;;;;;6.25;46.02;101189.53;146622;569;47010;-78
2023/02/01 02:39:55;;;;;;;;;5.50;3.50;;;;;5.66;45.44;101070.94;146621;642;46012;-77
2023/02/01 03:04:28;;;;;;;;;1.25;1.25;;;;;6.84;44.53;101301.37;146623;565;46011;-81
2023/02/01 03:08:17;;;;;;;;;3.00;3.00;;;;;6.12;45.21;101181.69;146624;586;46016;-81
2023/02/01 03:12:55;;;;;;;;;3.00;3.00;;;;;6.84;45.26;101310.78;146625;584;46010;-80
2023/02/01 03:14:48;;;;;;;;;5.00;4.00;;;;;6.82;44.80;101310.69;146620;618;46012;-81
2023/02/01 03:17:52;;;;;;;;;3.00;2.75;;;;;6.81;45.18;101310.56;146626;660;45020;-81
2023/02/01 03:20:53;;;;;;;;;7.50;4.00;;;;;6.80;44.59;101316.50;146621;581;46016;-81
2023/02/01 03:24:06;;;;;;;;;2.00;2.00;;;;;6.74;44.51;101332.41;146623;598;46020;-77
2023/02/01 03:27:25;;;;;;;;;2.50;2.00;;;;;6.70;44.83;101332.97;146619;597;46017;-76
2023/02/01 03:30:34;;;;;;;;;4.25;3.00;;;;;6.66;44.47;101331.78;146623;598;46010;-77
2023/02/01 03:33:40;;;;;;;;;5.75;3.75;;;;;6.62;43.80;101341.78;146617;625;46017;-76
2023/02/01 03:37:15;;;;;;;;;5.00;3.75;;;;;5.88;45.45;101227.88;146631;619;46020;-77
2023/02/01 03:40:21;;;;;;;;;6.00;4.25;;;;;6.51;43.89;101356.41;146627;592;46013;-76
2023/02/01 03:43:18;;;;;;;;;7.00;5.00;;;;;6.43;43.89;101358.38;146628;606;46021;-78
2023/02/01 03:46:21;;;;;;;;;4.25;4.00;;;;;6.30;44.02;101350.47;146625;605;46916;-73
2023/02/01 03:49:21;;;;;;;;;4.25;3.50;;;;;6.25;44.50;101362.09;146630;651;46011;-75
2023/02/01 03:52:37;;;;;;;;;3.75;3.50;;;;;6.23;45.09;101376.50;146625;629;46014;-77
2023/02/01 03:55:35;;;;;;;;;8.00;6.00;;;;;6.20;44.44;101366.91;146630;601;46010;-76
2023/02/01 03:58:58;;;;;;;;;5.25;4.75;;;;;6.17;44.49;101373.50;146629;576;46012;-76
2023/02/01 04:01:56;;;;;;;;;6.00;5.75;;;;;6.13;44.34;101366.28;146630;616;46020;-82
2023/02/01 04:04:48;;;;;;;;;6.25;4.75;;;;;6.02;44.73;101360.28;146627;590;46017;-83
2023/02/01 04:07:44;;;;;;;;;8.50;6.75;;;;;5.93;44.60;101368.16;146627;571;46020;-80
2023/02/01 04:10:39;;;;;;;;;9.75;6.75;;;;;5.89;45.60;101378.09;146625;619;47012;-81
2023/02/01 04:13:32;;;;;;;;;7.75;6.50;;;;;5.82;45.38;101375.75;146633;668;46010;-81
2023/02/01 04:16:32;;;;;;;;;7.25;5.75;;;;;5.75;45.13;101382.09;146625;587;46016;-80
2023/02/01 04:19:32;;;;;;;;;14.00;13.75;;;;;5.70;45.72;101393.69;146629;592;46010;-84
2023/02/01 04:22:25;;;;;;;;;13.00;10.50;;;;;5.66;45.53;101397.69;146622;659;46016;-84
2023/02/01 04:25:27;;;;;;;;;13.25;10.00;;;;;5.60;45.97;101402.31;146624;691;45021;-84
2023/02/01 04:28:42;;;;;;;;;10.75;9.00;;;;;5.53;46.43;101407.75;146624;607;46012;-82
2023/02/01 04:31:40;;;;;;;;;12.50;7.50;;;;;5.49;47.00;101408.28;146628;612;46010;-78
2023/02/01 04:34:56;;;;;;;;;9.25;9.25;;;;;5.47;46.76;101412.41;146625;588;46012;-80
2023/02/01 04:37:52;;;;;;;;;6.50;6.50;;;;;5.42;47.31;101416.25;146643;602;45020;-79
2023/02/01 04:40:57;;;;;;;;;9.50;7.75;;;;;4.66;47.37;101297.69;146638;566;45017;-74
2023/02/01 04:44:00;;;;;;;;;8.50;8.50;;;;;5.33;47.11;101422.44;146645;603;44916;-81
2023/02/01 04:46:52;;;;;;;;;6.25;6.25;;;;;5.32;47.44;101423.19;146642;602;45016;-80
2023/02/01 04:49:55;;;;;;;;;9.00;7.75;;;;;5.32;46.73;101424.88;146646;595;45021;-81
2023/02/01 04:52:59;;;;;;;;;6.00;5.25;;;;;5.30;47.08;101424.75;146641;689;45916;-79
2023/02/01 04:55:57;;;;;;;;;6.75;5.50;;;;;5.29;46.94;101428.09;146644;597;45020;-76
2023/02/01 04:58:52;;;;;;;;;5.50;4.50;;;;;5.33;46.43;101434.41;146641;587;45012;-77
2023/02/01 05:01:50;;;;;;;;;7.75;7.50;;;;;5.33;47.36;101437.88;146642;595;45020;-78
2023/02/01 05:04:42;;;;;;;;;6.75;6.50;;;;;5.36;46.50;101452.66;146640;663;46916;-78
2023/02/01 05:07:37;;;;;;;;;5.25;5.00;;;;;5.40;46.64;101457.28;146642;564;45010;-77
2023/02/01 05:10:40;;;;;;;;;9.00;7.25;;;;;5.43;46.54;101454.06;146641;616;45917;-78
2023/02/01 05:13:50;;;;;;;;;5.00;5.00;;;;;5.44;46.70;101468.72;146643;565;45020;-78
2023/02/01 05:16:50;;;;;;;;;10.50;9.50;;;;;5.42;46.45;101486.62;146639;609;45033;-78
2023/02/01 05:19:55;;;;;;;;;12.50;7.00;;;;;5.43;46.85;101485.84;146643;595;45020;-78
2023/02/01 05:22:51;;;;;;;;;2.00;2.00;;;;;5.46;46.89;101496.38;146641;614;45016;-78
2023/02/01 05:25:53;;;;;;;;;14.50;8.50;;;;;5.46;46.08;101501.53;146642;564;45021;-85
2023/02/01 05:28:46;;;;;;;;;7.00;7.00;;;;;5.45;46.09;101504.87;146642;570;46012;-76
2023/02/01 05:31:40;;;;;;;;;12.00;10.25;;;;;5.48;46.31;101515.44;146641;566;45013;-79
2023/02/01 05:34:38;;;;;;;;;11.25;10.00;;;;;5.52;45.66;101504.63;146642;592;46916;-79
2023/02/01 05:37:32;;;;;;;;;10.75;9.00;;;;;5.55;45.44;101507.44;146629;616;46010;-79
2023/02/01 05:40:25;;;;;;;;;8.25;7.25;;;;;5.59;45.20;101513.75;146626;564;47012;-78
2023/02/01 05:43:17;;;;;;;;;11.75;9.25;;;;;5.64;45.16;101517.59;146627;639;46020;-78
2023/02/01 05:46:33;;;;;;;;;4.25;4.00;;;;;4.96;46.02;101392.78;146624;615;46017;-79
2023/02/01 05:49:35;;;;;;;;;;;;;;;;;;;;;
2023/02/01 05:52:37;;;;;;;;;4.00;3.75;;;;;5.72;45.39;101513.09;146625;592;46012;-78
2023/02/01 05:55:36;;;;;;;;;3.75;3.25;;;;;5.78;45.09;101529.03;146631;564;46010;-81
2023/02/01 05:58:41;;;;;;;;;;;;;;;;;;;;;
2023/02/01 06:01:43;;;;;;;;;6.00;5.00;;;;;5.86;44.31;101528.00;146632;586;46021;-80
2023/02/01 06:05:00;;;;;;;;;5.50;4.75;;;;;5.89;44.80;101535.09;146627;571;46012;-85
2023/02/01 06:08:02;;;;;;;;;11.00;7.75;;;;;5.93;45.05;101538.06;146628;607;46020;-80
2023/02/01 06:11:10;;;;;;;;;10.00;8.00;;;;;6.00;45.80;101540.34;146626;636;46017;-79
2023/02/01 06:14:16;;;;;;;;;10.50;9.50;;;;;6.53;45.92;101548.06;146628;662;46012;-79
2023/02/01 06:17:14;;;;;;;;;11.50;10.25;;;;;7.44;44.06;101543.19;146627;737;46916;-80
2023/02/01 06:20:16;;;;;;;;;19.50;14.25;;;;;8.23;43.24;101537.94;146624;687;46020;-78
2023/02/01 06:23:23;;;;;;;;;10.25;7.50;;;;;8.95;39.71;101543.19;146626;662;46012;-80
2023/02/01 06:26:21;;;;;;;;;9.00;9.00;;;;;9.57;39.71;101552.63;146629;604;45027;-78
2023/02/01 06:29:27;;;;;;;;;8.00;7.75;;;;;10.26;37.35;101544.28;146626;656;46012;-87
2023/02/01 06:32:23;;;;;;;;;11.25;10.00;;;;;10.93;37.27;101553.81;146625;595;46021;-79
2023/02/01 06:35:18;;;;;;;;;12.25;9.50;;;;;11.54;35.63;101559.31;146621;612;46016;-79
2023/02/01 06:38:26;;;;;;;;;13.75;13.00;;;;;11.84;34.77;101556.72;146625;573;47010;-80
2023/02/01 06:41:32;;;;;;;;;11.00;9.25;;;;;12.01;33.85;101556.97;146622;603;46016;-80
2023/02/01 06:44:24;;;;;;;;;7.50;7.25;;;;;12.07;34.03;101556.44;146627;563;46020;-79
2023/02/01 06:47:23;;;;;;;;;8.00;7.25;;;;;12.23;34.00;101563.41;146618;564;46017;-80
2023/02/01 06:50:35;;;;;;;;;10.25;9.25;;;;;12.58;35.32;101561.94;146627;579;46020;-80
2023/02/01 06:53:30;;;;;;;;;13.00;11.00;;;;;12.85;34.05;101570.38;146622;575;46012;-80
2023/02/01 06:56:38;;;;;;;;;;;;;;;;;;;;;
2023/02/01 06:59:35;;;;;;;;;7.25;6.50;;;;;13.08;32.07;101566.44;146626;630;46016;-77
2023/02/01 07:02:39;;;;;;;;;10.50;7.25;;;;;12.81;32.48;101560.62;146631;616;46010;-78
2023/02/01 07:05:32;;;;;;;;;9.75;8.75;;;;;12.63;33.82;101574.38;146625;565;46012;-79
2023/02/01 07:08:31;;;;;;;;;12.75;10.50;;;;;12.57;33.18;101580.97;146624;597;46020;-80
2023/02/01 07:11:42;;;;;;;;;15.25;13.25;;;;;11.26;35.13;101382.78;146618;644;45035;-78
2023/02/01 07:14:41;;;;;;;;;12.75;12.00;;;;;12.00;33.44;101572.47;146623;568;46010;-78
2023/02/01 07:17:36;;;;;;;;;15.75;14.00;;;;;11.45;34.49;101575.22;146620;602;46016;-78
2023/02/01 07:20:44;;;;;;;;;19.75;17.25;;;;;10.94;35.70;101578.97;146621;590;46010;-78
2023/02/01 07:23:47;;;;;;;;;17.50;14.25;;;;;10.55;38.05;101578.19;146623;595;46013;-78
2023/02/01 07:26:41;;;;;;;;;16.75;15.00;;;;;10.28;37.35;101584.16;146619;633;46020;-79
2023/02/01 07:29:35;;;;;;;;;19.00;16.25;;;;;10.05;38.58;101585.22;146616;590;46016;-77
2023/02/01 07:32:28;;;;;;;;;15.25;13.75;;;;;9.94;38.41;101592.28;146617;588;46010;-77
2023/02/01 07:35:31;;;;;;;;;12.50;11.00;;;;;9.81;39.90;101584.44;146621;667;46016;-81
2023/02/01 07:38:24;;;;;;;;;9.75;9.75;;;;;9.66;38.93;101594.69;146641;579;45019;-79
2023/02/01 07:41:18;;;;;;;;;11.50;10.00;;;;;9.47;39.38;101592.50;146632;580;46012;-77
2023/02/01 07:44:25;;;;;;;;;12.00;11.00;;;;;9.34;40.80;101588.16;146640;599;45020;-77
2023/02/01 07:47:42;;;;;;;;;14.50;11.75;;;;;8.69;40.83;101487.03;146635;589;46014;-80
2023/02/01 07:50:45;;;;;;;;;14.50;10.75;;;;;8.62;40.65;101477.03;146638;595;45020;-74
2023/02/01 07:53:46;;;;;;;;;9.25;9.25;;;;;9.37;40.06;101619.41;146638;593;46016;-74
2023/02/01 07:56:54;;;;;;;;;11.50;10.50;;;;;9.37;40.22;101608.19;146640;607;45020;-82
2023/02/01 08:03:04;;;;;;;;;14.00;9.75;;;;;9.45;39.62;101619.97;146638;592;45010;-77
2023/02/01 08:06:04;;;;;;;;;10.75;8.25;;;;;9.48;40.64;101617.59;146639;588;46016;-75
2023/02/01 08:09:10;;;;;;;;;12.75;12.00;;;;;9.57;40.33;101631.19;146639;569;45020;-75
2023/02/01 08:12:03;;;;;;;;;11.50;10.50;;;;;9.76;39.40;101624.69;146634;594;45033;-76
2023/02/01 08:14:56;;;;;;;;;10.75;9.75;;;;;9.91;38.02;101637.00;146639;592;45021;-78
2023/02/01 08:18:06;;;;;;;;;6.25;5.75;;;;;10.02;37.06;101639.41;146639;590;45035;-79
2023/02/01 08:21:10;;;;;;;;;5.50;4.50;;;;;10.08;36.96;101635.53;146641;577;45913;-79
2023/02/01 08:24:10;;;;;;;;;5.25;5.25;;;;;10.22;39.02;101654.63;146643;564;45017;-78
2023/02/01 08:27:16;;;;;;;;;6.25;6.25;;;;;10.47;38.31;101659.81;146643;653;46010;-77
2023/02/01 08:30:21;;;;;;;;;7.25;5.00;;;;;10.76;39.56;101658.22;146640;574;46013;-76
2023/02/01 08:33:21;;;;;;;;;10.00;9.00;;;;;11.05;37.22;101653.19;146642;604;46020;-78
2023/02/01 08:36:19;;;;;;;;;7.50;5.25;;;;;11.35;36.79;101663.75;146628;609;45016;-77
2023/02/01 08:39:16;;;;;;;;;8.00;6.50;;;;;11.55;37.05;101660.69;146626;580;46020;-76
2023/02/01 08:45:30;;;;;;;;;8.50;6.25;;;;;11.73;35.99;101670.44;146625;565;46012;-79
2023/02/01 08:48:25;;;;;;;;;5.50;5.50;;;;;11.79;34.77;101669.09;146621;569;46016;-80
2023/02/01 08:51:20;;;;;;;;;5.00;5.00;;;;;11.82;35.60;101675.31;146625;580;46010;-76
2023/02/01 08:54:15;;;;;;;;;3.50;3.50;;;;;11.84;35.71;101658.06;146619;608;47016;-79
2023/02/01 08:57:16;;;;;;;;;9.75;7.00;;;;;11.95;36.61;101665.75;146623;619;46010;-80
2023/02/01 09:00:17;;;;;;;;;8.00;6.00;;;;;12.15;36.08;101658.25;146626;678;46012;-81
2023/02/01 09:03:15;;;;;;;;;8.00;8.00;;;;;12.37;36.40;101650.06;146627;593;46010;-70
2023/02/01 09:06:25;;;;;;;;;6.00;6.00;;;;;12.56;35.89;101637.31;146622;670;46016;-68
2023/02/01 09:09:26;;;;;;;;;8.00;6.75;;;;;12.77;36.21;101629.81;146621;652;49021;-80
2023/02/01 09:12:26;;;;;;;;;9.50;7.00;;;;;12.77;35.33;101606.37;146623;678;46016;-80
2023/02/01 09:15:29;;;;;;;;;8.25;7.25;;;;;12.98;32.86;101614.50;146621;592;47011;-82
2023/02/01 09:18:37;;;;;;;;;6.00;5.00;;;;;12.85;33.41;101615.53;146619;593;46016;-72
2023/02/01 09:21:33;;;;;;;;;5.00;5.00;;;;;12.70;33.21;101627.66;146623;574;46013;-72
2023/02/01 09:24:26;;;;;;;;;9.00;8.00;;;;;12.60;33.52;101628.84;146618;602;46014;-73
2023/02/01 09:27:20;;;;;;;;;6.75;5.50;;;;;12.50;33.70;101628.25;146623;585;46020;-73
2023/02/01 09:30:19;;;;;;;;;5.75;4.00;;;;;12.33;34.31;101633.34;146621;620;46013;-78
2023/02/01 09:33:28;;;;;;;;;;;;;;;;;;;;;
2023/02/01 09:36:24;;;;;;;;;5.25;5.25;;;;;12.15;33.42;101622.78;146619;588;46012;-71
2023/02/01 09:39:42;;;;;;;;;;;;;;;;;;;;;
2023/02/01 09:43:31;;;;;;;;;6.50;6.50;;;;;11.68;33.99;101514.28;146623;563;46916;-73
2023/02/01 09:46:51;;;;;;;;;6.00;4.50;;;;;12.50;34.45;101616.13;146622;721;47010;-72
2023/02/01 09:50:00;;;;;;;;;4.00;3.75;;;;;12.62;32.58;101610.75;146620;629;46016;-75
2023/02/01 09:53:21;;;;;;;;;7.25;7.25;;;;;12.13;35.13;101515.19;146621;570;46021;-75
2023/02/01 09:57:15;;;;;;;;;;;;;;;;;;;;;
2023/02/01 10:01:29;;;;;;;;;;;;;;;;;;;;;
2023/02/01 10:05:49;;;;;;;;;;;;;;;;;;;;;
2023/02/01 10:10:00;;;;;;;;;;;;;;;;;;;;;
2023/02/01 10:13:56;;;;;;;;;;;;;;;;;;;;;
2023/02/01 10:17:39;;;;;;;;;5.25;4.00;;;;;13.58;32.30;101579.63;146629;570;45020;-67
2023/02/01 10:21:35;;;;;;;;;7.00;5.75;;;;;13.63;32.52;101578.12;146624;565;45016;-70
2023/02/01 10:25:39;;;;;;;;;6.25;3.25;;;;;13.53;31.95;101559.34;146627;623;45020;-67
2023/02/01 10:29:17;;;;;;;;;;;;;;;;;;;;;
2023/02/01 10:33:02;;;;;;;;;;;;;;;;;;;;;
2023/02/01 10:37:18;;;;;;;;;;;;;;;;;;;;;
2023/02/01 10:41:19;;;;;;;;;2.00;1.50;;;;;14.18;34.40;101449.66;146642;572;44020;-69
2023/02/01 10:48:59;;;;;;;;;;;;;;;;;;;;;
2023/02/01 10:53:02;;;;;;;;;;;;;;;;;;;;;
2023/02/01 11:01:45;;;;;;;;;;;;;;;;;;;;;
2023/02/01 11:05:47;;;;;;;;;;;;;;;;;;;;;
2023/02/01 11:10:01;;;;;;;;;;;;;;;;;;;;;
2023/02/01 11:13:42;;;;;;;;;;;;;;;;;;;;;
2023/02/01 11:17:59;;;;;;;;;4.25;3.25;;;;;13.50;31.72;101327.28;146641;671;44919;-65
2023/02/01 11:21:44;;;;;;;;;5.00;3.75;;;;;14.53;34.07;101516.59;146645;671;44020;-79
2023/02/01 11:25:29;;;;;;;;;;;;;;;;;;;;;
2023/02/01 11:29:33;;;;;;;;;6.00;6.00;;;;;14.83;35.49;101484.94;146645;646;44021;-76
2023/02/01 11:33:35;;;;;;;;;;;;;;;;;;;;;
2023/02/01 11:37:24;;;;;;;;;;;;;;;;;;;;;
2023/02/01 11:41:54;;;;;;;;;;;;;;;;;;;;;
2023/02/01 11:49:51;;;;;;;;;9.25;7.50;;;;;15.80;34.84;101484.87;146645;569;45012;-77
2023/02/01 11:57:59;;;;;;;;;9.00;8.00;;;;;12.74;32.92;100945.28;146642;590;44016;-78
2023/02/01 12:02:12;;;;;;;;;;;;;;;;;;;;;
2023/02/01 12:06:34;;;;;;;;;;;;;;;;;;;;;
2023/02/01 12:10:29;;;;;;;;;;;;;;;;;;;;;
2023/02/01 12:14:25;;;;;;;;;4.25;3.25;;;;;13.71;34.51;101064.25;146646;578;44915;-76
2023/02/01 12:22:03;;;;;;;;;;;;;;;;;;;;;
2023/02/01 12:26:16;;;;;;;;;;;;;;;;;;;;;
2023/02/01 12:30:10;;;;;;;;;5.25;3.50;;;;;16.22;33.16;101476.12;146642;564;45012;-77
2023/02/01 12:37:10;;;;;;;;;4.25;4.25;;;;;16.39;33.71;101469.84;146638;574;45034;-71
2023/02/01 12:40:52;;;;;;;;;8.00;5.25;;;;;15.12;33.18;101225.03;146641;574;45010;-70
2023/02/01 12:44:10;;;;;;;;;7.25;7.00;;;;;16.51;29.27;101464.16;146641;583;45016;-69
2023/02/01 12:47:34;;;;;;;;;15.75;14.50;;;;;16.44;31.76;101465.66;146627;583;46020;-72
2023/02/01 12:51:02;;;;;;;;;;;;;;;;;;;;;
2023/02/01 12:54:37;;;;;;;;;5.50;5.00;;;;;16.18;32.32;101407.06;146649;581;45010;-71
2023/02/01 12:57:57;;;;;;;;;10.75;9.00;;;;;16.52;31.63;101458.13;146635;643;45914;-72
2023/02/01 13:01:21;;;;;;;;;7.50;6.00;;;;;16.58;28.65;101461.88;146646;603;45036;-71
2023/02/01 13:04:54;;;;;;;;;5.50;4.50;;;;;16.54;32.57;101456.44;146640;570;45017;-70
2023/02/01 13:08:07;;;;;;;;;5.75;5.75;;;;;16.46;29.32;101452.66;146633;563;46023;-73
2023/02/01 13:11:26;;;;;;;;;5.50;3.75;;;;;16.29;29.36;101438.88;146642;566;45015;-74
2023/02/01 13:14:57;;;;;;;;;7.50;7.50;;;;;16.28;31.75;101444.97;146639;629;46020;-78
2023/02/01 13:18:17;;;;;;;;;11.50;10.50;;;;;15.53;32.77;101305.94;146636;582;45913;-72
2023/02/01 13:21:28;;;;;;;;;3.00;2.00;;;;;16.54;28.86;101451.19;146642;664;45020;-73
2023/02/01 13:25:16;;;;;;;;;4.00;2.75;;;;;15.28;33.59;101207.38;146634;596;47913;-72
2023/02/01 13:28:21;;;;;;;;;5.25;4.00;;;;;16.87;29.46;101435.03;146643;573;45021;-73
2023/02/01 13:31:57;;;;;;;;;9.50;6.25;;;;;15.59;28.85;101192.06;146640;687;45020;-73
2023/02/01 13:35:38;;;;;;;;;7.50;5.25;;;;;17.00;30.95;101447.72;146640;603;45011;-71
2023/02/01 13:38:59;;;;;;;;;7.50;7.25;;;;;16.98;30.57;101438.94;146622;647;46016;-71
2023/02/01 13:42:31;;;;;;;;;6.00;5.50;;;;;17.19;31.78;101438.81;146629;661;46022;-72
2023/02/01 13:45:53;;;;;;;;;7.00;7.00;;;;;17.36;26.93;101439.41;146622;623;46016;-72
2023/02/01 13:49:07;;;;;;;;;3.00;3.00;;;;;16.50;27.35;101289.62;146627;668;46021;-73
2023/02/01 13:52:12;;;;;;;;;2.75;2.75;;;;;17.16;27.06;101444.81;146626;684;46012;-73
2023/02/01 13:55:42;;;;;;;;;4.00;4.00;;;;;17.19;29.54;101449.28;146627;591;46020;-68
2023/02/01 13:58:46;;;;;;;;;8.25;6.25;;;;;17.22;29.47;101449.38;146625;590;46037;-73
2023/02/01 14:01:40;;;;;;;;;8.25;6.00;;;;;17.28;28.35;101447.88;146628;570;46012;-72
2023/02/01 14:04:56;;;;;;;;;4.00;4.00;;;;;17.24;30.66;101447.72;146625;682;46016;-73
2023/02/01 14:08:29;;;;;;;;;5.75;4.25;;;;;17.12;29.45;101457.78;146627;632;47012;-71
2023/02/01 14:11:59;;;;;;;;;5.00;5.00;;;;;17.09;30.17;101450.69;146626;711;46013;-74
2023/02/01 14:14:53;;;;;;;;;16.50;16.50;;;;;17.09;28.96;101442.81;146620;602;46020;-70
2023/02/01 14:17:48;;;;;;;;;25.00;24.00;;;;;17.15;29.07;101447.41;146613;572;47016;-71
2023/02/01 14:20:53;;;;;;;;;22.75;19.00;;;;;17.31;31.70;101450.59;146617;643;45021;-73
2023/02/01 14:24:33;;;;;;;;;2.00;2.00;;;;;16.78;33.61;101336.03;146617;564;46016;-71
2023/02/01 14:27:36;;;;;;;;;9.50;7.00;;;;;17.21;27.81;101445.00;146629;583;46031;-70
2023/02/01 14:30:31;;;;;;;;;6.50;4.75;;;;;16.81;27.86;101456.63;146622;571;46913;-71
2023/02/01 14:33:40;;;;;;;;;4.00;3.25;;;;;15.42;30.04;101326.38;146631;569;46010;-69
2023/02/01 14:37:10;;;;;;;;;13.00;9.00;;;;;15.75;31.00;101462.88;146618;575;46016;-71
2023/02/01 14:40:29;;;;;;;;;10.00;10.00;;;;;15.35;31.80;101471.56;146628;604;46020;-71
2023/02/01 14:44:18;;;;;;;;;10.00;10.00;;;;;14.12;33.60;101316.34;146615;672;47014;-71
2023/02/01 14:47:15;;;;;;;;;7.00;7.00;;;;;14.84;30.50;101475.38;146624;590;46020;-74
2023/02/01 14:50:40;;;;;;;;;8.50;8.00;;;;;14.60;32.55;101473.41;146625;722;46016;-76
2023/02/01 14:53:48;;;;;;;;;28.50;24.75;;;;;14.41;32.84;101476.84;146621;577;46010;-74
2023/02/01 14:56:47;;;;;;;;;30.00;27.00;;;;;14.28;32.04;101480.56;146613;566;46023;-75
2023/02/01 14:59:48;;;;;;;;;28.25;27.25;;;;;14.16;31.81;101479.09;146613;564;46020;-74
2023/02/01 15:02:55;;;;;;;;;37.25;31.50;;;;;14.05;32.55;101473.38;146612;630;47012;-74
2023/02/01 15:06:07;;;;;;;;;28.75;24.75;;;;;13.95;34.11;101479.81;146619;661;46010;-74
2023/02/01 15:09:45;;;;;;;;;31.00;28.75;;;;;12.28;34.86;101210.94;146612;599;46016;-74
2023/02/01 15:12:50;;;;;;;;;36.00;31.25;;;;;13.75;33.28;101490.97;146620;570;46020;-74
2023/02/01 15:16:06;;;;;;;;;36.25;32.50;;;;;13.65;33.06;101481.81;146613;703;46016;-74
2023/02/01 15:19:18;;;;;;;;;22.75;21.50;;;;;13.54;34.73;101488.16;146610;577;47020;-73
2023/02/01 15:22:21;;;;;;;;;24.00;23.00;;;;;13.44;32.97;101481.59;146607;571;47913;-74
2023/02/01 15:25:41;;;;;;;;;31.25;24.75;;;;;11.72;35.07;101199.28;146614;653;46021;-74
2023/02/01 15:28:33;;;;;;;;;50.00;38.75;;;;;13.22;33.23;101483.84;146610;627;46012;-75
2023/02/01 15:31:54;;;;;;;;;49.00;40.50;;;;;13.10;35.56;101486.72;146614;598;46020;-75
2023/02/01 15:34:54;;;;;;;;;48.25;39.00;;;;;12.93;34.21;101485.81;146612;581;46012;-76
2023/02/01 15:37:48;;;;;;;;;48.25;39.25;;;;;12.77;33.61;101484.06;146610;635;46020;-73
2023/02/01 15:40:43;;;;;;;;;53.00;41.50;;;;;12.64;33.80;101484.22;146611;570;46914;-73
2023/02/01 15:44:20;;;;;;;;;51.25;40.50;;;;;11.68;36.04;101339.31;146615;579;46010;-74
2023/02/01 15:47:30;;;;;;;;;13.25;11.00;;;;;12.27;34.70;101481.28;146610;569;47017;-78
2023/02/01 15:50:28;;;;;;;;;18.75;15.50;;;;;12.07;35.33;101488.84;146615;719;46020;-73
2023/02/01 15:53:36;;;;;;;;;20.25;17.75;;;;;11.84;36.47;101487.50;146612;629;47014;-73
2023/02/01 15:56:42;;;;;;;;;32.25;29.25;;;;;11.49;37.55;101481.09;146617;628;46021;-74
2023/02/01 15:59:57;;;;;;;;;30.50;26.00;;;;;11.17;38.16;101488.66;146611;657;46016;-73
2023/02/01 16:03:22;;;;;;;;;25.50;21.75;;;;;10.85;38.83;101496.25;146614;585;46027;-72
2023/02/01 16:06:40;;;;;;;;;25.50;22.75;;;;;10.50;39.43;101495.72;146613;648;46012;-72
2023/02/01 16:09:56;;;;;;;;;12.00;11.50;;;;;9.17;40.75;101329.94;146619;613;45047;-72
2023/02/01 16:13:11;;;;;;;;;10.75;9.00;;;;;9.77;41.50;101500.47;146615;597;46016;-71
2023/02/01 16:16:13;;;;;;;;;12.75;9.50;;;;;9.41;41.41;101502.38;146627;608;46035;-70
2023/02/01 16:19:09;;;;;;;;;14.00;11.25;;;;;9.19;41.34;101501.69;146620;584;46014;-73
2023/02/01 16:22:07;;;;;;;;;25.00;22.00;;;;;9.07;41.45;101504.34;146618;592;46020;-73
2023/02/01 16:25:02;;;;;;;;;46.75;35.75;;;;;9.00;41.42;101510.78;146612;590;46016;-73
2023/02/01 16:28:05;;;;;;;;;32.50;29.00;;;;;8.93;41.30;101512.81;146615;565;46051;-74
2023/02/01 16:31:00;;;;;;;;;29.50;23.50;;;;;8.86;41.31;101511.47;146608;590;47027;-73
2023/02/01 16:34:09;;;;;;;;;24.50;20.50;;;;;8.83;41.84;101515.53;146616;569;46010;-74
2023/02/01 16:37:02;;;;;;;;;18.25;15.00;;;;;8.78;41.78;101520.38;146613;622;46016;-73
2023/02/01 16:40:02;;;;;;;;;16.25;14.50;;;;;8.73;41.75;101524.34;146633;587;45021;-73
2023/02/01 16:43:02;;;;;;;;;20.00;18.00;;;;;8.83;41.91;101529.38;146633;581;46016;-73